createdAt,value
2023-07-03T00:01:27.555Z,100749.75
2023-07-03T00:06:30.577Z,100746.75
2023-07-03T00:11:34.324Z,100742.16
2023-07-03T00:16:37.059Z,100750.31
2023-07-03T00:21:45.019Z,100740.94
2023-07-03T00:26:47.625Z,100752.47
2023-07-03T00:31:50.389Z,100751.44
2023-07-03T00:36:53.160Z,100740.63
2023-07-03T00:41:55.777Z,100742.78
2023-07-03T00:46:58.386Z,100751.75
2023-07-03T00:52:04.075Z,100751.16
2023-07-03T00:57:07.185Z,100766.28
2023-07-03T01:02:19.737Z,100755.09
2023-07-03T01:07:32.525Z,100765.09
2023-07-03T01:12:40.114Z,100756.66
2023-07-03T01:17:46.055Z,100766.34
2023-07-03T01:23:07.825Z,100767.44
2023-07-03T01:28:14.108Z,100773.97
2023-07-03T01:33:23.102Z,100786.59
2023-07-03T01:38:28.251Z,100793.34
2023-07-03T01:43:31.987Z,100790.47
2023-07-03T01:48:35.501Z,100795.44
2023-07-03T01:59:26.091Z,100812.13
2023-07-03T02:04:51.955Z,100806.13
2023-07-03T02:09:57.698Z,100819.56
2023-07-03T02:15:05.463Z,100826.53
2023-07-03T02:20:18.234Z,100825.09
2023-07-03T02:25:23.033Z,100826.38
2023-07-03T02:30:25.595Z,100841.03
2023-07-03T02:35:29.020Z,100846.41
2023-07-03T02:40:31.570Z,100841.22
2023-07-03T02:45:39.404Z,100845.28
2023-07-03T02:50:44.214Z,100853.22
2023-07-03T02:55:50.259Z,100851.69
2023-07-03T03:00:58.102Z,100840.38
2023-07-03T03:06:00.995Z,100843.13
2023-07-03T03:11:04.337Z,100842.06
2023-07-03T03:16:07.777Z,100848.03
2023-07-03T03:21:10.573Z,100857.03
2023-07-03T03:26:13.579Z,100862.78
2023-07-03T03:31:16.584Z,100867.69
2023-07-03T03:36:27.863Z,100864.22
2023-07-03T03:41:31.162Z,100872.41
2023-07-03T03:46:36.021Z,100875.88
2023-07-03T03:51:39.413Z,100879.97
2023-07-03T03:56:42.202Z,100882.94
2023-07-03T04:01:46.560Z,100886.28
2023-07-03T04:06:49.270Z,100890.75
2023-07-03T04:11:52.179Z,100890.75
2023-07-03T04:16:58.719Z,100898.34
2023-07-03T04:22:02.314Z,100900.78
2023-07-03T04:27:05.184Z,100896.72
2023-07-03T04:32:08.282Z,100905.81
2023-07-03T04:37:11.112Z,100915.78
2023-07-03T04:42:15.184Z,100913.50
2023-07-03T04:47:20.265Z,100914.78
2023-07-03T04:52:28.905Z,100912.97
2023-07-03T04:57:31.649Z,100910.03
2023-07-03T05:02:34.208Z,100909.91
2023-07-03T05:07:36.785Z,100912.41
2023-07-03T05:12:39.852Z,100913.75
2023-07-03T05:17:46.124Z,100908.16
2023-07-03T05:22:48.810Z,100917.75
2023-07-03T05:27:51.414Z,100920.69
2023-07-03T05:32:54.108Z,100909.75
2023-07-03T05:37:57.772Z,100908.31
2023-07-03T05:43:00.294Z,100915.13
2023-07-03T05:48:03.697Z,100906.41
2023-07-03T05:53:06.757Z,100907.03
2023-07-03T05:58:10.093Z,100906.22
2023-07-03T06:03:18.526Z,100908.31
2023-07-03T06:08:24.101Z,100916.53
2023-07-03T06:13:27.878Z,100922.44
2023-07-03T06:18:30.436Z,100930.31
2023-07-03T06:23:35.347Z,100928.16
2023-07-03T06:28:38.090Z,100927.81
2023-07-03T06:33:40.630Z,100936.19
2023-07-03T06:38:43.246Z,100926.91
2023-07-03T06:43:45.952Z,100918.28
2023-07-03T06:48:48.517Z,100924.03
2023-07-03T06:53:51.176Z,100926.78
2023-07-03T06:58:53.941Z,100923.81
2023-07-03T07:03:56.689Z,100933.53
2023-07-03T07:09:00.817Z,100932.47
2023-07-03T07:14:06.042Z,100939.81
2023-07-03T07:19:11.074Z,100934.72
2023-07-03T07:24:15.680Z,100936.28
2023-07-03T07:29:18.516Z,100930.81
2023-07-03T07:34:21.149Z,100935.66
2023-07-03T07:39:26.318Z,100932.34
2023-07-03T07:44:29.479Z,100925.16
2023-07-03T07:49:32.085Z,100936.78
2023-07-03T07:54:35.086Z,100937.91
2023-07-03T07:59:38.033Z,100928.19
2023-07-03T08:04:40.897Z,100948.19
2023-07-03T08:09:44.203Z,100943.91
2023-07-03T08:14:46.690Z,100947.72
2023-07-03T08:19:49.325Z,100943.44
2023-07-03T08:24:51.902Z,100939.44
2023-07-03T08:29:56.092Z,100949.22
2023-07-03T08:40:08.432Z,100943.78
2023-07-03T08:45:16.928Z,100939.84
2023-07-03T08:50:35.805Z,100934.78
2023-07-03T08:55:48.544Z,100951.13
2023-07-03T09:01:12.102Z,100941.59
2023-07-03T09:06:24.531Z,100935.69
2023-07-03T09:11:30.069Z,100940.66
2023-07-03T09:16:32.829Z,100943.97
2023-07-03T09:21:37.841Z,100943.00
2023-07-03T09:26:45.446Z,100929.09
2023-07-03T09:31:48.041Z,100929.25
2023-07-03T09:37:00.752Z,100932.63
2023-07-03T09:42:09.625Z,100940.00
2023-07-03T09:47:27.677Z,100937.53
2023-07-03T09:52:30.461Z,100928.69
2023-07-03T09:57:35.341Z,100924.88
2023-07-03T10:07:46.146Z,100917.16
2023-07-03T10:13:04.614Z,100923.56
2023-07-03T10:18:22.116Z,100924.78
2023-07-03T10:23:28.862Z,100923.91
2023-07-03T10:28:37.289Z,100916.88
2023-07-03T10:33:45.828Z,100926.41
2023-07-03T10:39:07.225Z,100920.22
2023-07-03T10:44:14.615Z,100926.19
2023-07-03T10:49:28.220Z,100917.09
2023-07-03T10:54:36.057Z,100914.06
2023-07-03T10:59:46.882Z,100907.50
2023-07-03T11:04:59.280Z,100914.06
2023-07-03T11:10:32.972Z,100893.81
2023-07-03T11:15:57.334Z,100895.72
2023-07-03T11:31:27.265Z,100880.28
2023-07-03T11:36:50.705Z,100891.63
2023-07-03T11:47:17.252Z,100879.47
2023-07-03T11:52:31.535Z,100888.78
2023-07-03T11:57:38.543Z,100879.44
2023-07-03T12:02:41.098Z,100886.53
2023-07-03T12:07:48.438Z,100883.28
2023-07-03T12:13:45.254Z,100876.91
2023-07-03T12:19:03.660Z,100873.88
2023-07-03T12:24:20.069Z,100880.00
2023-07-03T12:29:23.748Z,100858.28
2023-07-03T12:34:28.060Z,100862.78
2023-07-03T12:39:33.321Z,100869.19
2023-07-03T12:44:36.007Z,100863.03
2023-07-03T12:50:01.916Z,100871.13
2023-07-03T12:55:14.707Z,100865.63
2023-07-03T13:00:26.528Z,100872.75
2023-07-03T13:05:33.832Z,100877.50
2023-07-03T13:10:37.628Z,100874.19
2023-07-03T13:15:42.949Z,100872.84
2023-07-03T13:20:57.560Z,100863.63
2023-07-03T13:26:01.694Z,100868.28
2023-07-03T13:31:15.269Z,100867.41
2023-07-03T13:36:32.430Z,100854.13
2023-07-03T13:41:36.110Z,100853.50
2023-07-03T13:46:40.274Z,100849.88
2023-07-03T13:51:48.711Z,100849.31
2023-07-03T13:56:51.498Z,100867.50
2023-07-03T14:01:54.068Z,100862.69
2023-07-03T14:06:56.586Z,100857.34
2023-07-03T14:11:59.182Z,100862.00
2023-07-03T14:17:04.423Z,100872.25
2023-07-03T14:22:07.039Z,100872.41
2023-07-03T14:27:10.432Z,100877.94
2023-07-03T14:32:13.199Z,100877.22
2023-07-03T14:37:18.215Z,100852.38
2023-07-03T14:42:21.001Z,100870.66
2023-07-03T14:47:23.713Z,100875.41
2023-07-03T14:52:35.942Z,100894.94
2023-07-03T14:57:39.023Z,100890.25
2023-07-03T15:02:43.564Z,100920.09
2023-07-03T15:07:47.175Z,100926.69
2023-07-03T15:12:49.967Z,100937.28
2023-07-03T15:17:52.969Z,100933.88
2023-07-03T15:22:55.676Z,100934.34
2023-07-03T15:28:00.820Z,100927.13
2023-07-03T15:33:03.360Z,100938.03
2023-07-03T15:38:06.227Z,100961.22
2023-07-03T15:43:09.140Z,100957.34
2023-07-03T15:48:12.089Z,100959.22
2023-07-03T15:53:14.712Z,100970.38
2023-07-03T15:58:17.337Z,101006.53
2023-07-03T16:03:20.097Z,100999.00
2023-07-03T16:08:22.767Z,101000.38
2023-07-03T16:13:27.958Z,101001.03
2023-07-03T16:18:32.251Z,101007.16
2023-07-03T16:23:37.332Z,101018.69
2023-07-03T16:28:40.777Z,101014.13
2023-07-03T16:33:45.362Z,101026.34
2023-07-03T16:38:53.238Z,101023.03
2023-07-03T16:43:57.855Z,101036.47
2023-07-03T16:49:00.528Z,101025.84
2023-07-03T16:54:04.554Z,101026.50
2023-07-03T16:59:07.278Z,101027.31
2023-07-03T17:04:09.952Z,101031.00
2023-07-03T17:09:13.138Z,101032.44
2023-07-03T17:14:15.860Z,101044.66
2023-07-03T17:19:18.548Z,101047.31
2023-07-03T17:24:21.242Z,101045.50
2023-07-03T17:29:24.031Z,101057.31
2023-07-03T17:34:26.636Z,101056.09
2023-07-03T17:39:29.273Z,101052.66
2023-07-03T17:44:32.590Z,101055.41
2023-07-03T17:49:37.468Z,101051.19
2023-07-03T17:54:40.662Z,101060.16
2023-07-03T17:59:43.321Z,101058.66
2023-07-03T18:04:46.057Z,101046.31
2023-07-03T18:09:48.876Z,101059.91
2023-07-03T18:14:51.413Z,101062.03
2023-07-03T18:19:54.204Z,101069.22
2023-07-03T18:24:56.700Z,101077.53
2023-07-03T18:29:59.284Z,101062.94
2023-07-03T18:35:02.213Z,101063.50
2023-07-03T18:40:07.490Z,101058.47
2023-07-03T18:45:10.242Z,101063.72
2023-07-03T18:50:14.481Z,101065.97
2023-07-03T18:55:17.357Z,101061.94
2023-07-03T19:00:20.242Z,101061.94
2023-07-03T19:05:22.781Z,101051.88
2023-07-03T19:10:25.349Z,101059.91
2023-07-03T19:15:28.008Z,101066.97
2023-07-03T19:20:30.645Z,101069.25
2023-07-03T19:25:33.589Z,101070.44
2023-07-03T19:30:36.581Z,101072.88
2023-07-03T19:35:39.441Z,101064.75
2023-07-03T19:40:42.626Z,101075.09
2023-07-03T19:45:45.676Z,101075.91
2023-07-03T19:50:49.481Z,101082.41
2023-07-03T19:55:52.265Z,101096.16
2023-07-03T20:00:57.069Z,101102.66
2023-07-03T20:05:59.824Z,101108.19
2023-07-03T20:11:03.356Z,101105.03
2023-07-03T20:16:06.252Z,101107.34
2023-07-03T20:21:09.184Z,101100.00
2023-07-03T20:26:11.822Z,101110.56
2023-07-03T20:31:16.280Z,101112.94
2023-07-03T20:36:19.764Z,101106.44
2023-07-03T20:41:22.497Z,101109.44
2023-07-03T20:46:25.669Z,101103.78
2023-07-03T20:51:33.700Z,101112.50
2023-07-03T20:56:38.823Z,101123.19
2023-07-03T21:01:41.493Z,101111.56
2023-07-03T21:06:46.121Z,101115.69
2023-07-03T21:11:49.255Z,101124.69
2023-07-03T21:16:54.777Z,101125.31
2023-07-03T21:21:57.354Z,101126.50
2023-07-03T21:26:59.839Z,101121.28
2023-07-03T21:32:02.513Z,101108.94
2023-07-03T21:37:07.404Z,101107.84
2023-07-03T21:42:10.190Z,101104.91
2023-07-03T21:47:14.505Z,101100.47
2023-07-03T21:52:17.020Z,101099.31
2023-07-03T21:57:20.653Z,101094.66
2023-07-03T22:02:23.257Z,101089.78
2023-07-03T22:07:25.788Z,101090.38
2023-07-03T22:12:28.720Z,101093.63
2023-07-03T22:17:31.605Z,101095.78
2023-07-03T22:22:36.586Z,101093.03
2023-07-03T22:27:39.295Z,101090.22
2023-07-03T22:32:42.183Z,101096.28
2023-07-03T22:37:45.499Z,101086.38
2023-07-03T22:42:48.850Z,101099.88
2023-07-03T22:47:54.996Z,101098.97
2023-07-03T22:52:58.684Z,101095.03
2023-07-03T22:58:01.499Z,101103.44
2023-07-03T23:03:04.249Z,101110.56
2023-07-03T23:08:06.990Z,101117.44
2023-07-03T23:13:09.587Z,101110.00
2023-07-03T23:18:13.884Z,101119.16
2023-07-03T23:23:17.083Z,101118.56
2023-07-03T23:28:20.363Z,101122.13
2023-07-03T23:33:23.197Z,101127.84
2023-07-03T23:38:27.434Z,101119.22
2023-07-03T23:43:30.166Z,101122.75
2023-07-03T23:48:33.206Z,101134.28
2023-07-03T23:53:44.369Z,101145.00
2023-07-03T23:58:49.759Z,101134.09
